KMSO/MSO METAR and TAF weather

Enter ICAO airport designator
Station Type Date Time Source
KMSO METAR 2020/07/11 03:53 UTC NOAA

KMSO 110353Z AUTO 33006KT 10SM CLR 17/08 A3018 RMK AO2 SLP208 T01720083


Station Type Date Time Source
KMSO Decoded METAR 2020/07/11 03:53 UTC NOAA

MISSOULA INTERNATIONAL AIRPORT , MT, United States (KMSO) 46-55N 114-06W 975M
Jul 10, 2020 - 11:53 PM EDT / 2020.07.11 0353 UTC
Wind: from the NNW (330 degrees) at 7 MPH (6 KT):0
Visibility: 10 mile(s):0
Sky conditions: clear
Temperature: 63.0 F (17.2 C)
Dew Point: 46.9 F (8.3 C)
Relative Humidity: 55%
Pressure (altimeter): 30.18 in. Hg (1022 hPa)
ob: KMSO 110353Z AUTO 33006KT 10SM CLR 17/08 A3018 RMK AO2 SLP208 T01720083
cycle: 4

Station Type Date Time Source
KMSO TAF 2020/07/10 18:27 UTC NOAA

TAF KMSO 101724Z 1018/1118 33007KT P6SM SCT025 BKN050
FM102200 30011G19KT P6SM BKN050
FM110200 32005KT P6SM SKC

Example: see airport list